Time;durP1;ratioP1;P1;durP2;ratioP2;P2;SDS_P1;SDS_P2;PMS_P1;PMS_P2;Temp;Humidity;BMP_temperature;BMP_pressure;BME280_temperature;BME280_humidity;BME280_pressure;Samples;Min_cycle;Max_cycle;Signal;HPM_P1;HPM_P2
2022/12/08 00:01:39;;;;;;;3.60;2.65;;;16.20;46.10;;;;;;5107710;27;45177;-75
2022/12/08 00:04:06;;;;;;;4.10;2.92;;;16.10;46.10;;;;;;5107249;27;45280;-74
2022/12/08 00:09:22;;;;;;;2.60;2.40;;;16.10;46.20;;;;;;5107853;27;45301;-75
2022/12/08 00:11:50;;;;;;;3.22;2.72;;;16.00;46.20;;;;;;5107428;27;45398;-75
2022/12/08 00:14:18;;;;;;;3.22;2.70;;;16.00;46.30;;;;;;5107219;27;46450;-75
2022/12/08 00:16:47;;;;;;;4.03;2.85;;;16.00;46.30;;;;;;5107292;27;45298;-74
2022/12/08 00:19:14;;;;;;;3.28;2.50;;;15.90;46.20;;;;;;5107094;27;45394;-75
2022/12/08 00:21:41;;;;;;;4.53;3.15;;;15.90;46.30;;;;;;5107338;27;45331;-74
2022/12/08 00:24:08;;;;;;;3.97;3.10;;;15.90;46.40;;;;;;5107019;27;48002;-75
2022/12/08 00:26:36;;;;;;;2.90;2.60;;;15.80;46.40;;;;;;5108341;27;45228;-75
2022/12/08 00:29:03;;;;;;;3.60;3.10;;;15.80;46.40;;;;;;5110838;27;45252;-75
2022/12/08 00:31:30;;;;;;;3.13;2.75;;;15.80;47.00;;;;;;5111055;27;45358;-75
2022/12/08 00:33:59;;;;;;;3.42;2.65;;;15.70;46.40;;;;;;5110781;27;45396;-75
2022/12/08 00:36:26;;;;;;;3.20;2.75;;;15.70;46.40;;;;;;5110684;27;45270;-74
2022/12/08 00:38:53;;;;;;;3.53;2.90;;;15.70;46.50;;;;;;5111139;27;45178;-75
2022/12/08 00:42:10;;;;;;;3.38;2.78;;;15.70;46.50;;;;;;5110925;27;45368;-75
2022/12/08 00:44:09;;;;;;;3.00;2.70;;;15.70;46.50;;;;;;5110500;27;45338;-75
2022/12/08 00:46:36;;;;;;;3.47;2.50;;;15.70;46.40;;;;;;5104108;27;45201;-75
2022/12/08 00:49:08;;;;;;;3.15;2.28;;;15.80;46.30;;;;;;5071900;28;45323;-75
2022/12/08 00:51:35;;;;;;;3.65;2.67;;;15.80;46.80;;;;;;5090007;28;44897;-76
2022/12/08 00:54:02;;;;;;;3.53;2.63;;;15.90;46.70;;;;;;5089849;28;45746;-75
2022/12/08 00:56:29;;;;;;;3.40;2.78;;;15.90;45.90;;;;;;5089845;28;45154;-74
2022/12/08 00:58:55;;;;;;;3.40;2.60;;;16.00;45.90;;;;;;5089176;28;45420;-75
2022/12/08 01:01:22;;;;;;;2.67;2.38;;;16.10;45.80;;;;;;5090120;28;45397;-75
2022/12/08 01:03:49;;;;;;;3.78;2.63;;;16.10;45.70;;;;;;5089371;28;45491;-75
2022/12/08 01:06:18;;;;;;;2.70;2.50;;;16.20;45.60;;;;;;5089619;28;45311;-75
2022/12/08 01:08:45;;;;;;;3.10;2.80;;;16.20;45.60;;;;;;5089705;28;45316;-75
2022/12/08 01:11:13;;;;;;;5.97;2.67;;;16.20;46.20;;;;;;5071804;28;45401;-75
2022/12/08 01:13:41;;;;;;;2.65;2.42;;;16.20;45.60;;;;;;5089313;28;46609;-75
2022/12/08 01:16:08;;;;;;;2.67;2.25;;;16.20;45.50;;;;;;5089681;28;45201;-75
2022/12/08 01:18:41;;;;;;;2.53;2.33;;;16.20;45.50;;;;;;5089794;28;45486;-75
2022/12/08 01:21:08;;;;;;;2.70;2.20;;;16.20;45.50;;;;;;5089857;28;45276;-75
2022/12/08 01:23:36;;;;;;;2.10;1.83;;;16.20;45.50;;;;;;5089378;28;47963;-75
2022/12/08 01:26:03;;;;;;;2.85;2.25;;;16.20;45.50;;;;;;5089371;28;45327;-75
2022/12/08 01:28:30;;;;;;;2.70;2.05;;;16.10;45.50;;;;;;5089659;28;45300;-75
2022/12/08 01:30:57;;;;;;;2.20;2.00;;;16.10;45.60;;;;;;5089537;28;45222;-75
2022/12/08 01:33:25;;;;;;;2.58;2.30;;;16.10;45.60;;;;;;5089437;28;46381;-75
2022/12/08 01:35:52;;;;;;;2.95;2.33;;;16.10;45.50;;;;;;5088850;28;45482;-75
2022/12/08 01:38:19;;;;;;;2.65;2.13;;;16.00;45.50;;;;;;5088300;27;45284;-75
2022/12/08 01:40:48;;;;;;;2.75;1.92;;;16.00;45.50;;;;;;5089439;28;45205;-75
2022/12/08 01:43:15;;;;;;;2.22;2.00;;;16.00;45.60;;;;;;5088942;28;46378;-75
2022/12/08 01:45:43;;;;;;;3.00;1.98;;;16.00;45.60;;;;;;5088183;28;46169;-75
2022/12/08 01:48:11;;;;;;;2.85;2.20;;;16.00;45.70;;;;;;5108528;27;45393;-75
2022/12/08 01:50:39;;;;;;;2.15;1.95;;;15.90;45.70;;;;;;5109930;27;45180;-75
2022/12/08 01:53:08;;;;;;;2.33;1.83;;;15.90;45.70;;;;;;5109063;27;45860;-75
2022/12/08 01:55:36;;;;;;;2.47;2.05;;;15.90;45.80;;;;;;5109766;27;45218;-75
2022/12/08 01:58:07;;;;;;;2.15;1.88;;;15.80;45.80;;;;;;5110045;27;45181;-75
2022/12/08 02:00:34;;;;;;;1.67;1.58;;;15.80;45.80;;;;;;5109897;27;45320;-76
2022/12/08 02:03:02;;;;;;;2.00;1.80;;;15.80;45.80;;;;;;5109461;27;45263;-75
2022/12/08 02:05:30;;;;;;;2.15;1.95;;;15.70;45.80;;;;;;5109449;27;45185;-75
2022/12/08 02:07:58;;;;;;;3.22;2.10;;;15.70;45.90;;;;;;5109391;27;45398;-76
2022/12/08 02:10:25;;;;;;;2.65;1.90;;;15.70;46.00;;;;;;5109392;27;45363;-75
2022/12/08 02:12:52;;;;;;;2.15;2.00;;;15.60;46.00;;;;;;5109818;27;46758;-76
2022/12/08 02:15:21;;;;;;;1.80;1.70;;;15.60;46.10;;;;;;5100683;27;45230;-75
2022/12/08 02:17:54;;;;;;;1.80;1.42;;;15.60;46.10;;;;;;5089856;28;45320;-75
2022/12/08 02:20:32;;;;;;;1.73;1.58;;;15.50;46.00;;;;;;5089957;28;45316;-75
2022/12/08 02:23:01;;;;;;;1.90;1.45;;;15.50;46.00;;;;;;5088909;28;46631;-75
2022/12/08 02:25:34;;;;;;;1.63;1.52;;;15.50;46.00;;;;;;5089240;28;45278;-75
2022/12/08 02:28:05;;;;;;;1.90;1.58;;;15.60;46.00;;;;;;5089402;28;45265;-75
2022/12/08 02:30:38;;;;;;;1.50;1.40;;;15.60;45.80;;;;;;5089054;28;45569;-75
2022/12/08 02:33:40;;;;;;;1.83;1.60;;;15.70;45.70;;;;;;5070860;28;46922;-75
2022/12/08 02:36:11;;;;;;;1.13;1.13;;;15.80;45.60;;;;;;5086144;28;45304;-75
2022/12/08 02:38:46;;;;;;;1.58;1.48;;;15.80;45.50;;;;;;5089080;28;45197;-75
2022/12/08 02:41:28;;;;;;;1.50;1.40;;;15.90;45.50;;;;;;5089272;28;45336;-75
2022/12/08 02:43:57;;;;;;;1.50;1.40;;;15.90;45.90;;;;;;5089040;28;45535;-75
2022/12/08 02:46:26;;;;;;;1.85;1.63;;;16.00;45.30;;;;;;5093368;27;45465;-75
2022/12/08 02:48:53;;;;;;;1.70;1.60;;;16.00;45.10;;;;;;5109272;27;45199;-75
2022/12/08 02:51:22;;;;;;;1.65;1.50;;;16.10;45.10;;;;;;5109958;27;45557;-75
2022/12/08 02:53:48;;;;;;;1.50;1.38;;;16.10;45.00;;;;;;5109105;27;45816;-75
2022/12/08 02:56:23;;;;;;;1.58;1.48;;;16.10;45.00;;;;;;5109107;27;45324;-75
2022/12/08 02:59:10;;;;;;;1.45;1.35;;;16.10;44.90;;;;;;5109715;27;45369;-75
2022/12/08 03:01:49;;;;;;;1.48;1.38;;;16.00;45.00;;;;;;5092630;27;45165;-75
2022/12/08 03:04:20;;;;;;;1.98;1.27;;;16.00;44.90;;;;;;5108123;27;46645;-75
2022/12/08 03:06:51;;;;;;;1.67;1.40;;;16.00;45.00;;;;;;5108366;27;45335;-75
2022/12/08 03:09:19;;;;;;;1.50;1.33;;;16.00;45.00;;;;;;5108345;27;45357;-75
2022/12/08 03:11:49;;;;;;;1.35;1.25;;;16.00;45.00;;;;;;5108624;27;45395;-75
2022/12/08 03:14:17;;;;;;;1.60;1.50;;;16.00;45.00;;;;;;5107734;27;46254;-76
2022/12/08 03:16:49;;;;;;;1.55;1.45;;;15.90;45.00;;;;;;5086848;28;45272;-76
2022/12/08 03:19:18;;;;;;;1.73;1.63;;;15.90;45.00;;;;;;5086749;28;45295;-76
2022/12/08 03:21:45;;;;;;;1.30;1.23;;;15.90;45.10;;;;;;5087911;28;45442;-75
2022/12/08 03:24:14;;;;;;;1.35;1.25;;;15.80;45.10;;;;;;5087656;28;47563;-75
2022/12/08 03:26:43;;;;;;;2.05;1.65;;;15.80;45.10;;;;;;5087524;28;45660;-75
2022/12/08 03:29:10;;;;;;;1.45;1.30;;;15.80;45.20;;;;;;5087406;28;45316;-75
2022/12/08 03:31:39;;;;;;;1.60;1.48;;;15.70;45.20;;;;;;5087810;28;45210;-75
2022/12/08 03:34:06;;;;;;;1.30;1.20;;;15.70;45.20;;;;;;5087478;28;46406;-75
2022/12/08 03:36:33;;;;;;;2.10;1.38;;;15.70;45.30;;;;;;5087251;28;45322;-75
2022/12/08 03:38:59;;;;;;;1.50;1.40;;;15.60;45.30;;;;;;5069225;28;45320;-75
2022/12/08 03:41:28;;;;;;;1.50;1.30;;;15.60;45.30;;;;;;5087530;28;45164;-75
2022/12/08 03:43:57;;;;;;;1.55;1.45;;;15.60;45.40;;;;;;5087158;28;45572;-75
2022/12/08 03:46:24;;;;;;;1.63;1.52;;;15.50;45.40;;;;;;5091459;27;45327;-75
2022/12/08 03:48:51;;;;;;;1.77;1.67;;;15.50;45.50;;;;;;5107808;27;45145;-75
2022/12/08 03:51:18;;;;;;;1.33;1.23;;;15.40;45.50;;;;;;5107921;27;45169;-76
2022/12/08 03:53:45;;;;;;;1.65;1.48;;;15.40;45.60;;;;;;5107476;27;48291;-75
2022/12/08 03:56:16;;;;;;;1.90;1.60;;;15.40;46.30;;;;;;5107913;27;45342;-75
2022/12/08 03:58:44;;;;;;;1.73;1.60;;;15.40;45.70;;;;;;5107750;27;45149;-75
2022/12/08 04:01:12;;;;;;;1.52;1.40;;;15.40;45.70;;;;;;5107343;27;45500;-75
2022/12/08 04:03:38;;;;;;;1.73;1.52;;;15.40;45.70;;;;;;5107444;27;45298;-75
2022/12/08 04:06:06;;;;;;;1.40;1.30;;;15.40;45.60;;;;;;5106784;27;45419;-75
2022/12/08 04:08:33;;;;;;;1.40;1.30;;;15.50;45.40;;;;;;5107360;27;45189;-75
2022/12/08 04:11:00;;;;;;;2.10;1.67;;;15.50;45.30;;;;;;5107759;27;45198;-76
2022/12/08 04:13:27;;;;;;;1.75;1.65;;;15.60;45.30;;;;;;5107048;27;46738;-75
2022/12/08 04:15:55;;;;;;;2.28;1.50;;;15.70;45.90;;;;;;5093136;27;45484;-75
2022/12/08 04:18:22;;;;;;;1.73;1.35;;;15.70;45.80;;;;;;5087173;28;45182;-76
2022/12/08 04:20:49;;;;;;;1.80;1.50;;;15.80;45.20;;;;;;5087031;28;45190;-76
2022/12/08 04:23:16;;;;;;;1.52;1.38;;;15.80;45.10;;;;;;5086685;28;45626;-75
2022/12/08 04:25:44;;;;;;;1.23;1.13;;;15.80;45.00;;;;;;5086539;28;45380;-75
2022/12/08 04:28:11;;;;;;;1.60;1.50;;;15.80;45.00;;;;;;5086804;28;45336;-77
2022/12/08 04:30:38;;;;;;;1.73;1.20;;;15.90;45.00;;;;;;5087235;28;45182;-76
2022/12/08 04:33:07;;;;;;;1.00;1.00;;;15.80;44.90;;;;;;5086645;28;45631;-77
2022/12/08 04:35:34;;;;;;;1.40;1.30;;;15.90;44.90;;;;;;5086502;28;45313;-76
2022/12/08 04:38:01;;;;;;;1.80;1.30;;;15.90;44.90;;;;;;5086556;28;45385;-77
2022/12/08 04:40:27;;;;;;;1.77;1.38;;;15.80;44.90;;;;;;5086773;28;45200;-77
2022/12/08 04:42:54;;;;;;;1.45;1.35;;;15.80;45.00;;;;;;5086289;28;46672;-76
2022/12/08 04:45:21;;;;;;;1.55;1.40;;;15.80;45.10;;;;;;5086262;28;45520;-77
2022/12/08 04:47:54;;;;;;;1.83;1.67;;;15.80;45.10;;;;;;5102418;27;45654;-75
2022/12/08 04:50:22;;;;;;;1.33;1.20;;;15.70;45.00;;;;;;5106369;27;45450;-77
2022/12/08 04:52:49;;;;;;;1.70;1.30;;;15.70;45.00;;;;;;5105879;27;47317;-77
2022/12/08 04:55:16;;;;;;;2.55;1.50;;;15.70;45.10;;;;;;5106648;27;45269;-76
2022/12/08 04:57:43;;;;;;;2.17;1.27;;;15.70;45.00;;;;;;5107245;27;45205;-76
2022/12/08 05:00:12;;;;;;;1.13;1.05;;;15.70;45.10;;;;;;5107211;27;45273;-76
2022/12/08 05:02:39;;;;;;;1.60;1.35;;;15.60;45.10;;;;;;5106502;27;45453;-76
2022/12/08 05:05:07;;;;;;;1.20;1.20;;;15.60;45.10;;;;;;5106642;27;45323;-76
2022/12/08 05:07:35;;;;;;;1.50;1.40;;;15.60;45.80;;;;;;5106701;27;45247;-77
2022/12/08 05:10:02;;;;;;;2.08;1.30;;;15.60;45.10;;;;;;5106787;27;45295;-76
2022/12/08 05:12:29;;;;;;;1.45;1.13;;;15.50;45.10;;;;;;5107840;27;47442;-77
2022/12/08 05:14:56;;;;;;;1.42;1.33;;;15.50;45.20;;;;;;5109890;27;45276;-76
2022/12/08 05:17:23;;;;;;;1.38;1.08;;;15.50;45.30;;;;;;5110342;27;45180;-76
2022/12/08 05:19:50;;;;;;;1.63;1.20;;;15.40;45.30;;;;;;5110170;27;45559;-76
2022/12/08 05:22:17;;;;;;;1.40;1.30;;;15.30;45.30;;;;;;5109873;27;46549;-76
2022/12/08 05:24:45;;;;;;;2.22;1.30;;;15.30;45.40;;;;;;5110129;27;45284;-76
2022/12/08 05:27:12;;;;;;;1.35;1.10;;;15.30;45.40;;;;;;5109967;27;45269;-75
2022/12/08 05:29:39;;;;;;;1.55;1.20;;;15.30;45.50;;;;;;5110042;27;45192;-77
2022/12/08 05:32:06;;;;;;;1.45;1.35;;;15.30;45.40;;;;;;5110077;27;47329;-76
2022/12/08 05:34:33;;;;;;;1.27;1.17;;;15.40;45.40;;;;;;5109605;27;45248;-75
2022/12/08 05:37:00;;;;;;;1.20;1.10;;;15.40;45.20;;;;;;5109540;27;45290;-76
2022/12/08 05:39:27;;;;;;;1.55;1.45;;;15.50;45.10;;;;;;5109854;27;45185;-77
2022/12/08 05:41:55;;;;;;;1.40;1.30;;;15.50;45.00;;;;;;5109480;27;45277;-76
2022/12/08 05:44:22;;;;;;;1.48;1.38;;;15.60;45.00;;;;;;5109684;27;45319;-76
2022/12/08 05:46:49;;;;;;;1.52;1.23;;;15.70;44.90;;;;;;5101702;27;45335;-77
2022/12/08 05:49:16;;;;;;;1.40;1.30;;;15.70;44.80;;;;;;5089361;28;45486;-76
2022/12/08 05:51:44;;;;;;;1.73;1.52;;;15.70;44.70;;;;;;5088367;28;46362;-76
2022/12/08 05:54:10;;;;;;;1.50;1.40;;;15.80;44.70;;;;;;5088858;28;45275;-76
2022/12/08 05:56:37;;;;;;;1.58;1.48;;;15.80;44.70;;;;;;5088925;28;45319;-75
2022/12/08 05:59:07;;;;;;;1.40;1.30;;;15.80;44.60;;;;;;5089203;28;45565;-76
2022/12/08 06:01:34;;;;;;;1.58;1.42;;;15.80;44.60;;;;;;5088661;28;45988;-76
2022/12/08 06:04:01;;;;;;;1.75;1.65;;;15.80;44.50;;;;;;5088826;28;45196;-76
2022/12/08 06:06:28;;;;;;;2.08;1.63;;;15.80;44.50;;;;;;5088752;28;45313;-76
2022/12/08 06:08:56;;;;;;;2.72;1.63;;;15.80;44.50;;;;;;5089381;28;45410;-75
2022/12/08 06:11:24;;;;;;;1.63;1.52;;;15.70;44.50;;;;;;5088571;28;46652;-76
2022/12/08 06:13:51;;;;;;;1.70;1.52;;;15.70;44.60;;;;;;5088710;28;45249;-76
2022/12/08 06:16:19;;;;;;;2.35;1.63;;;15.70;44.60;;;;;;5106394;27;45296;-76
2022/12/08 06:18:47;;;;;;;1.77;1.40;;;15.70;44.60;;;;;;5108969;27;45475;-74
2022/12/08 06:21:14;;;;;;;1.45;1.35;;;15.60;44.60;;;;;;5108204;27;45751;-76
2022/12/08 06:23:41;;;;;;;1.70;1.50;;;15.60;44.60;;;;;;5108335;27;45196;-76
2022/12/08 06:26:09;;;;;;;2.58;1.70;;;15.60;44.60;;;;;;5109072;27;45299;-76
2022/12/08 06:28:36;;;;;;;2.00;1.70;;;15.60;44.70;;;;;;5109159;27;45319;-76
2022/12/08 06:31:07;;;;;;;1.70;1.60;;;15.50;44.80;;;;;;5108836;27;45494;-76
2022/12/08 06:33:35;;;;;;;2.13;1.60;;;15.50;44.80;;;;;;5108603;27;45453;-76
2022/12/08 06:36:02;;;;;;;1.70;1.50;;;15.50;44.90;;;;;;5109008;27;45330;-76
2022/12/08 06:38:29;;;;;;;1.40;1.30;;;15.40;44.90;;;;;;5108953;27;45209;-76
2022/12/08 06:40:57;;;;;;;2.92;1.85;;;15.40;44.90;;;;;;5108236;27;46633;-76
2022/12/08 06:43:24;;;;;;;1.65;1.40;;;15.40;45.00;;;;;;5108545;27;45323;-76
2022/12/08 06:45:51;;;;;;;2.33;1.65;;;15.30;45.00;;;;;;5108695;27;45443;-76
2022/12/08 06:48:21;;;;;;;2.10;1.90;;;15.40;45.10;;;;;;5108962;27;45267;-76
2022/12/08 06:50:49;;;;;;;1.77;1.65;;;15.30;45.10;;;;;;5108347;27;45603;-75
2022/12/08 06:53:17;;;;;;;2.20;1.55;;;15.30;45.10;;;;;;5108274;27;45315;-76
2022/12/08 06:55:45;;;;;;;1.75;1.65;;;15.30;45.20;;;;;;5108700;27;45208;-75
2022/12/08 06:58:12;;;;;;;1.65;1.55;;;15.30;45.20;;;;;;5090467;27;45166;-76
2022/12/08 07:00:39;;;;;;;2.33;1.90;;;15.30;45.10;;;;;;5108417;27;46890;-77
2022/12/08 07:03:07;;;;;;;2.20;1.60;;;15.30;45.00;;;;;;5108136;27;45280;-76
2022/12/08 07:05:34;;;;;;;1.80;1.60;;;15.40;45.00;;;;;;5107815;27;45197;-75
2022/12/08 07:08:05;;;;;;;1.40;1.30;;;15.50;44.90;;;;;;5107931;27;45139;-77
2022/12/08 07:10:32;;;;;;;1.63;1.52;;;15.50;44.80;;;;;;5108145;27;45652;-76
2022/12/08 07:12:59;;;;;;;1.80;1.70;;;15.60;44.80;;;;;;5108529;27;45223;-76
2022/12/08 07:15:26;;;;;;;2.17;1.52;;;15.60;45.30;;;;;;5097937;27;45251;-76
2022/12/08 07:17:53;;;;;;;1.90;1.65;;;15.70;44.60;;;;;;5087860;28;45441;-76
2022/12/08 07:20:20;;;;;;;1.90;1.70;;;15.70;44.60;;;;;;5087695;28;47589;-76
2022/12/08 07:22:50;;;;;;;2.00;1.70;;;15.70;44.50;;;;;;5087467;28;45355;-76
2022/12/08 07:25:18;;;;;;;2.30;2.10;;;15.70;44.50;;;;;;5087933;28;45268;-76
2022/12/08 07:27:46;;;;;;;1.75;1.65;;;15.70;44.50;;;;;;5087651;28;45482;-76
2022/12/08 07:30:13;;;;;;;1.60;1.50;;;15.70;44.50;;;;;;5087069;28;46951;-76
2022/12/08 07:32:40;;;;;;;4.15;1.73;;;15.70;44.50;;;;;;5087155;28;45237;-76
2022/12/08 07:35:08;;;;;;;1.83;1.33;;;15.70;44.40;;;;;;5087134;28;45179;-76
2022/12/08 07:37:36;;;;;;;1.73;1.58;;;15.70;44.40;;;;;;5086929;28;45316;-76
2022/12/08 07:40:04;;;;;;;1.45;1.35;;;15.70;44.50;;;;;;5087055;28;45617;-76
2022/12/08 07:42:32;;;;;;;1.55;1.45;;;15.70;44.50;;;;;;5087286;28;45201;-76
2022/12/08 07:44:59;;;;;;;2.25;1.42;;;15.70;44.50;;;;;;5087576;28;45281;-76
2022/12/08 07:47:26;;;;;;;2.15;1.60;;;15.60;44.50;;;;;;5100232;27;45469;-76
2022/12/08 07:49:53;;;;;;;1.60;1.50;;;15.60;44.50;;;;;;5107565;27;45170;-75
2022/12/08 07:52:22;;;;;;;1.35;1.20;;;15.60;44.60;;;;;;5106354;27;45220;-75
2022/12/08 07:54:49;;;;;;;1.58;1.48;;;15.50;44.60;;;;;;5107036;27;45356;-77
2022/12/08 07:57:16;;;;;;;1.55;1.45;;;15.50;44.60;;;;;;5107965;27;45327;-76
2022/12/08 07:59:47;;;;;;;1.67;1.55;;;15.50;44.70;;;;;;5107411;27;47148;-76
2022/12/08 08:02:17;;;;;;;2.22;1.65;;;15.50;44.80;;;;;;5107490;27;45447;-76
2022/12/08 08:04:44;;;;;;;1.65;1.55;;;15.50;44.80;;;;;;5108115;27;45200;-76
2022/12/08 08:07:11;;;;;;;1.95;1.70;;;15.50;44.90;;;;;;5107712;27;45430;-76
2022/12/08 08:09:38;;;;;;;2.10;1.90;;;15.40;44.90;;;;;;5107333;27;45326;-76
2022/12/08 08:12:06;;;;;;;2.70;1.85;;;15.40;44.90;;;;;;5107263;27;45322;-76
2022/12/08 08:14:33;;;;;;;2.92;2.15;;;15.40;45.00;;;;;;5073344;27;45574;-77
2022/12/08 08:17:02;;;;;;;1.80;1.70;;;15.40;45.00;;;;;;5086696;28;45535;-77
2022/12/08 08:19:29;;;;;;;2.08;1.88;;;15.40;45.10;;;;;;5086705;28;46688;-76
2022/12/08 08:21:56;;;;;;;2.10;1.70;;;15.30;45.10;;;;;;5086665;28;45320;-77
2022/12/08 08:24:24;;;;;;;2.33;1.80;;;15.30;45.10;;;;;;5086746;28;45237;-75
2022/12/08 08:26:52;;;;;;;2.03;1.85;;;15.30;45.20;;;;;;5087122;28;45174;-75
2022/12/08 08:29:19;;;;;;;2.75;2.03;;;15.30;45.20;;;;;;5086691;28;46395;-76
2022/12/08 08:31:46;;;;;;;2.55;2.15;;;15.30;45.20;;;;;;5086727;28;45339;-75
2022/12/08 08:34:14;;;;;;;1.52;1.42;;;15.30;45.10;;;;;;5086987;28;45329;-75
2022/12/08 08:36:41;;;;;;;1.90;1.80;;;15.40;45.00;;;;;;5086856;28;45463;-75
2022/12/08 08:39:08;;;;;;;1.50;1.40;;;15.50;45.00;;;;;;5086039;28;46599;-75
2022/12/08 08:41:36;;;;;;;2.95;1.67;;;15.50;44.90;;;;;;5086226;28;45307;-76
2022/12/08 08:44:03;;;;;;;2.83;2.10;;;15.60;44.90;;;;;;5086675;28;45338;-76
2022/12/08 08:46:30;;;;;;;2.40;1.85;;;15.70;44.80;;;;;;5086575;28;45440;-76
2022/12/08 08:48:57;;;;;;;4.55;1.73;;;15.70;44.70;;;;;;5089889;28;45848;-76
2022/12/08 08:51:26;;;;;;;2.22;1.77;;;15.80;45.30;;;;;;5089317;28;45436;-76
2022/12/08 08:53:53;;;;;;;2.00;1.73;;;15.80;44.60;;;;;;5090055;28;45362;-76
2022/12/08 08:56:20;;;;;;;2.03;1.70;;;15.80;44.50;;;;;;5089739;28;45586;-76
2022/12/08 08:58:48;;;;;;;2.38;1.90;;;15.90;44.50;;;;;;5089320;28;46164;-75
2022/12/08 09:01:16;;;;;;;2.05;1.85;;;15.90;44.50;;;;;;5089324;28;45281;-75
2022/12/08 09:03:44;;;;;;;1.60;1.50;;;15.90;44.50;;;;;;5089583;28;45333;-75
2022/12/08 09:06:11;;;;;;;2.20;1.98;;;15.90;44.50;;;;;;5089503;28;45621;-76
2022/12/08 09:08:41;;;;;;;2.63;1.80;;;15.90;44.50;;;;;;5089191;28;46834;-76
2022/12/08 09:11:08;;;;;;;2.67;1.88;;;15.90;44.50;;;;;;5089048;28;45362;-75
2022/12/08 09:13:35;;;;;;;2.22;1.90;;;15.90;44.50;;;;;;5089150;28;45200;-76
2022/12/08 09:16:04;;;;;;;2.00;1.90;;;15.90;44.50;;;;;;5089618;28;45428;-75
2022/12/08 09:18:30;;;;;;;2.30;1.80;;;15.90;44.50;;;;;;5088939;28;45434;-76
2022/12/08 09:20:57;;;;;;;1.92;1.75;;;15.90;44.50;;;;;;5089166;28;45416;-76
2022/12/08 09:23:25;;;;;;;3.00;1.95;;;15.90;44.50;;;;;;5088688;28;45230;-75
2022/12/08 09:25:53;;;;;;;1.90;1.63;;;15.80;44.50;;;;;;5088659;28;45129;-76
2022/12/08 09:28:20;;;;;;;2.15;1.95;;;15.80;44.50;;;;;;5088865;28;46614;-75
2022/12/08 09:30:47;;;;;;;2.05;1.92;;;15.80;44.50;;;;;;5088480;28;45391;-75
2022/12/08 09:33:14;;;;;;;2.00;1.80;;;15.80;44.50;;;;;;5088924;28;45276;-76
2022/12/08 09:35:41;;;;;;;2.10;1.90;;;15.80;44.60;;;;;;5088890;28;45306;-75
2022/12/08 09:38:08;;;;;;;2.45;2.00;;;15.80;44.60;;;;;;5088576;28;45571;-76
2022/12/08 09:40:40;;;;;;;2.35;1.75;;;15.70;44.60;;;;;;5088699;28;45361;-76
2022/12/08 09:43:16;;;;;;;1.98;1.83;;;15.70;44.70;;;;;;5088988;28;45297;-76
2022/12/08 09:45:43;;;;;;;2.00;1.80;;;15.70;44.70;;;;;;5089056;28;45338;-76
2022/12/08 09:48:11;;;;;;;2.78;2.20;;;15.70;44.70;;;;;;5088394;28;46344;-75
2022/12/08 09:50:40;;;;;;;1.90;1.70;;;15.70;44.70;;;;;;5088716;28;45311;-76
2022/12/08 09:53:12;;;;;;;1.92;1.65;;;15.70;44.70;;;;;;5084678;28;45225;-75
2022/12/08 09:55:41;;;;;;;3.13;2.25;;;15.70;44.70;;;;;;5088633;27;45403;-76
2022/12/08 09:58:16;;;;;;;2.53;1.90;;;15.70;44.80;;;;;;5086735;28;45263;-75
2022/12/08 10:00:43;;;;;;;2.90;2.20;;;15.70;44.70;;;;;;5087354;28;45191;-75
2022/12/08 10:03:10;;;;;;;2.55;2.30;;;15.70;44.70;;;;;;5088468;28;45307;-75
2022/12/08 10:05:39;;;;;;;2.50;2.30;;;15.70;44.70;;;;;;5088638;27;45589;-76
2022/12/08 10:08:11;;;;;;;1.80;1.70;;;15.70;44.70;;;;;;5087883;27;46690;-75
2022/12/08 10:10:42;;;;;;;2.42;1.88;;;15.70;44.70;;;;;;5088200;28;45303;-75
2022/12/08 10:13:16;;;;;;;2.45;2.10;;;15.70;44.70;;;;;;5088271;28;45284;-75
2022/12/08 10:15:46;;;;;;;2.15;1.95;;;15.70;45.30;;;;;;5100704;27;45560;-76
2022/12/08 10:18:15;;;;;;;2.15;1.65;;;15.70;44.70;;;;;;5108784;27;48287;-76
2022/12/08 10:20:44;;;;;;;2.28;2.05;;;15.70;44.70;;;;;;5108641;27;45134;-75
2022/12/08 10:23:21;;;;;;;2.92;1.95;;;15.80;44.70;;;;;;5107254;27;45363;-75
2022/12/08 10:25:50;;;;;;;2.53;2.13;;;15.80;44.60;;;;;;5108882;27;45381;-75
2022/12/08 10:28:18;;;;;;;2.65;2.05;;;15.90;44.50;;;;;;5107593;27;45236;-75
2022/12/08 10:30:45;;;;;;;2.47;2.10;;;15.90;44.60;;;;;;5108417;27;45323;-75
2022/12/08 10:33:14;;;;;;;3.55;2.30;;;15.90;44.60;;;;;;5108803;27;45277;-75
2022/12/08 10:35:45;;;;;;;2.83;2.22;;;16.00;44.50;;;;;;5108755;27;45414;-75
2022/12/08 10:38:21;;;;;;;1.98;1.70;;;16.10;44.50;;;;;;5108237;27;48483;-75
2022/12/08 10:40:48;;;;;;;2.70;1.90;;;16.20;44.20;;;;;;5108277;27;45333;-75
2022/12/08 10:43:15;;;;;;;2.50;2.30;;;16.30;44.10;;;;;;5107217;27;45331;-76
2022/12/08 10:45:45;;;;;;;2.35;2.15;;;16.30;44.00;;;;;;5108597;27;45309;-76
2022/12/08 10:48:17;;;;;;;2.22;1.90;;;16.40;44.00;;;;;;5088426;27;45509;-75
2022/12/08 10:50:45;;;;;;;2.25;2.05;;;16.40;43.90;;;;;;5087522;27;45146;-75
2022/12/08 10:53:13;;;;;;;2.33;2.13;;;16.40;43.90;;;;;;5087505;28;45331;-76
2022/12/08 10:55:42;;;;;;;2.60;2.20;;;16.40;43.90;;;;;;5087560;28;45440;-76
2022/12/08 10:58:27;;;;;;;2.75;1.92;;;16.50;43.90;;;;;;5087262;28;46414;-75
2022/12/08 11:00:56;;;;;;;2.17;1.98;;;16.50;43.80;;;;;;5086649;28;45269;-75
2022/12/08 11:03:26;;;;;;;2.17;1.98;;;16.50;43.90;;;;;;5087668;28;45325;-76
2022/12/08 11:05:56;;;;;;;2.53;2.10;;;16.50;43.90;;;;;;5087576;28;45603;-75
2022/12/08 11:08:23;;;;;;;2.65;2.17;;;16.40;43.90;;;;;;5087103;28;46691;-76
2022/12/08 11:10:50;;;;;;;2.85;2.22;;;16.40;44.00;;;;;;5086970;27;45246;-75
2022/12/08 11:13:19;;;;;;;2.33;2.05;;;16.40;44.00;;;;;;5087439;28;45205;-76
2022/12/08 11:15:48;;;;;;;2.85;2.30;;;16.40;44.00;;;;;;5100108;27;45515;-76
2022/12/08 11:18:37;;;;;;;3.17;2.03;;;16.40;44.00;;;;;;5107407;27;45986;-76
2022/12/08 11:21:07;;;;;;;2.75;2.13;;;16.40;44.00;;;;;;5107570;27;45221;-76
2022/12/08 11:23:37;;;;;;;3.15;2.58;;;16.40;44.00;;;;;;5107562;27;45292;-75
2022/12/08 11:26:07;;;;;;;2.90;2.25;;;16.40;44.00;;;;;;5107838;27;45539;-75
2022/12/08 11:28:34;;;;;;;2.67;2.47;;;16.40;44.60;;;;;;5107305;27;46647;-76
2022/12/08 11:31:04;;;;;;;2.63;2.25;;;16.40;44.00;;;;;;5107685;27;45224;-76
2022/12/08 11:33:32;;;;;;;2.55;2.28;;;16.40;44.60;;;;;;5107745;27;45382;-76
2022/12/08 11:36:02;;;;;;;2.50;2.25;;;16.50;43.90;;;;;;5107252;27;45420;-76
2022/12/08 11:38:29;;;;;;;2.72;2.47;;;16.50;43.80;;;;;;5106426;27;45231;-75
2022/12/08 11:40:57;;;;;;;3.45;2.20;;;16.60;43.70;;;;;;5106821;27;45490;-75
2022/12/08 11:43:29;;;;;;;3.28;2.97;;;16.60;43.60;;;;;;5107735;27;45296;-75
2022/12/08 11:45:58;;;;;;;2.92;2.50;;;16.60;43.60;;;;;;5107296;27;45162;-76
2022/12/08 11:48:36;;;;;;;2.40;2.13;;;16.60;43.70;;;;;;5086272;28;46533;-76
2022/12/08 11:51:05;;;;;;;2.92;2.63;;;16.50;43.80;;;;;;5086841;28;45166;-76
2022/12/08 11:53:35;;;;;;;3.00;2.55;;;16.50;43.90;;;;;;5086515;28;45305;-76
2022/12/08 11:56:06;;;;;;;2.30;2.10;;;16.40;44.00;;;;;;5086356;28;45223;-76
2022/12/08 11:58:36;;;;;;;2.50;2.30;;;16.30;44.10;;;;;;5086485;28;46416;-75
2022/12/08 12:01:03;;;;;;;2.60;2.40;;;16.30;44.20;;;;;;5068660;28;45257;-76
2022/12/08 12:03:33;;;;;;;2.70;2.30;;;16.20;44.30;;;;;;5086629;28;45257;-75
2022/12/08 12:06:21;;;;;;;2.80;2.50;;;16.20;44.40;;;;;;5086747;28;45317;-76
2022/12/08 12:08:53;;;;;;;3.92;2.45;;;16.20;44.50;;;;;;5074989;28;45546;-76
2022/12/08 12:14:10;;;;;;;3.35;2.58;;;16.10;44.70;;;;;;5065442;28;45331;-76
2022/12/08 12:16:58;;;;;;;3.00;2.42;;;16.10;44.60;;;;;;5079716;28;45565;-75
2022/12/08 12:19:25;;;;;;;4.63;2.90;;;16.10;44.50;;;;;;5066530;28;45715;-75
2022/12/08 12:21:55;;;;;;;3.35;2.78;;;16.10;44.60;;;;;;5080891;27;45256;-75
2022/12/08 12:24:23;;;;;;;5.15;2.83;;;16.10;44.50;;;;;;5087321;28;45280;-75
2022/12/08 12:26:55;;;;;;;4.05;3.08;;;16.10;44.50;;;;;;5093458;28;45296;-75
2022/12/08 12:29:22;;;;;;;4.07;2.92;;;16.10;44.40;;;;;;5079588;28;45536;-75
2022/12/08 12:31:52;;;;;;;3.70;3.30;;;16.10;44.30;;;;;;5092903;28;45312;-75
2022/12/08 12:34:21;;;;;;;4.53;3.40;;;16.10;44.30;;;;;;5091445;28;45273;-75
2022/12/08 12:36:49;;;;;;;4.13;3.00;;;16.10;44.60;;;;;;5075092;28;45694;-75
2022/12/08 12:39:18;;;;;;;5.50;3.47;;;16.10;44.40;;;;;;5078628;28;47202;-75
2022/12/08 12:41:48;;;;;;;4.35;3.17;;;16.20;44.30;;;;;;5093060;28;45267;-75
2022/12/08 12:44:39;;;;;;;3.28;2.95;;;16.20;44.20;;;;;;5092888;28;45344;-75
2022/12/08 12:47:10;;;;;;;3.88;3.15;;;16.30;44.10;;;;;;5074740;27;45377;-75
2022/12/08 12:50:08;;;;;;;4.30;3.15;;;16.30;44.10;;;;;;5073618;28;46401;-75
2022/12/08 12:52:45;;;;;;;4.07;2.80;;;16.30;44.10;;;;;;5090914;28;45438;-75
2022/12/08 12:55:44;;;;;;;3.85;3.40;;;16.30;44.00;;;;;;5092811;28;45277;-75
2022/12/08 12:58:39;;;;;;;5.95;3.60;;;16.30;44.00;;;;;;5082402;28;45307;-75
2022/12/08 13:01:49;;;;;;;4.50;3.10;;;16.30;44.00;;;;;;5054166;28;45583;-75
2022/12/08 13:04:16;;;;;;;3.92;2.88;;;16.30;44.00;;;;;;5051547;28;45297;-75